Sudbury Airport
CYSB : now visible

Airfield :











YOU CAN JOIN US ON...

 
LOGIN :

Register | Disclaimer

   EN    FR    IT 

 









Legend :    VFR   Marginal VFR   IFR   Intensive IFR   Very Intensive IFR
Visi :
Ceiling :
>= 8 km
>= 3000ft
5 to 8 km
1000 to 3000 ft
1500m to 5 km
500 to 1000 ft
800 to 1500m
200 to 500 ft
< 800m
< 200 ft
Symbols :   Thunderstorms  Fog  Heavy snow  Heavy precipitations  Wind > 20 kt






- Airport Elevation : 1141 ft
- IATA code : YSB


CYSB - Sudbury

CURRENT METAR :
  • 142100Z 23009G16KT 15SM -SN BKN015 OVC037 M03/M05 A2994 RMK SC5SC3 SLP160

EXPIRED METARs :
  • 142000Z 23010KT 20SM -SN BKN015 OVC040 M03/M05 A2994 RMK SC6SC2 SLP160
  • 141900Z 22010KT 8SM -SN BKN016 OVC047 M03/M05 A2995 RMK SC5SC3 SLP164
  • 141800Z 23009KT 15SM -SN BKN012 OVC052 M03/M06 A2996 RMK SC5CU3 SLP168

TAF TAF CYSB
Valid from the 14 at 20:00 until the 15 at 08:00 UTC


141938Z 1420/1508 22010KT P6SM BKN025 OVC040
TEMPO 1420/1502 5SM -SHSN BKN015 OVC025
FM150200 22012G22KT 3/4SM -SHSN VV008
TEMPO 1502/1506 2SM -SN SCT008 OVC012
FM150600 22012G22KT 3SM -SHSN BKN012 OVC025
BECMG 1506/1508 26012KT RMK NXT FCST BY 150200Z



MET'MAP, your aeronautical weather chart ! - Copyright ORBIFLY December 2007 - Disclaimer

ORBIFLY MET'MAP TEAM :

Programming & Development : Alexandra Zaïnal
Concept & Development : Baudouin d'Aumeries
Co-Development & Prog : Marc-Olivier Méhu
Technical & hardware support : Manuel Goepfert

Contact : metmap@orbifly.com




SOURCES & CREDITS :

   NOAA       Earth
Advisory